ADDS METAR Data INFO
IDs: Format: Raw Decoded Include TAF

Data at: 2036 UTC 16 Dec 2017

KDZB 162015Z AUTO 16007KT 10SM RA SCT047 BKN065 OVC080 09/04 A3003 RMK AO2 T00940044
KDZB 161955Z AUTO 16006KT 10SM SCT033 BKN041 OVC049 11/03 A3005 RMK AO2 T01080025
KDZB 161935Z AUTO 15009G16KT 10SM -RA BKN033 OVC044 11/02 A3006 RMK AO2 T01050024
KDZB 161915Z AUTO 17005KT 10SM BKN038 OVC048 11/03 A3009 RMK AO2 T01070030
KDZB 161855Z AUTO 15004KT 10SM OVC040 11/03 A3009 RMK AO2 T01070029
KDZB 161835Z AUTO 17004KT 10SM OVC040 11/03 A3011 RMK AO2 T01070027
KDZB 161815Z AUTO 18003KT 10SM OVC044 11/03 A3013 RMK AO2 T01070028
KDZB 161755Z AUTO 14004KT 10SM OVC046 11/03 A3012 RMK AO2 T01070025 10110 20043
KDZB 161735Z AUTO 17004KT 10SM OVC048 11/02 A3013 RMK AO2 T01090021
KDZB 161715Z AUTO 00000KT 10SM -DZ OVC050 11/03 A3013 RMK AO2 T01100027
KDZB 161655Z AUTO 16004KT 10SM OVC050 11/03 A3013 RMK AO2 T01080025
KDZB 161635Z AUTO 13004KT OVC060 11/03 A3013 RMK AO2 T01050028
KDZB 161615Z AUTO 14004KT 10SM OVC060 10/03 A3013 RMK AO2 T00990028
KDZB 161555Z AUTO 00000KT 10SM OVC060 10/03 A3014 RMK AO2 T00970028
KDZB 161535Z AUTO 00000KT 10SM OVC060 09/04 A3014 RMK AO2 T00920039
KDZB 161515Z AUTO 00000KT 10SM OVC060 09/04 A3013 RMK AO2 T00850036
KDZB 161455Z AUTO 00000KT 10SM OVC070 08/04 A3013 RMK AO2 T00810036
KDZB 161435Z AUTO 00000KT 10SM OVC070 07/04 A3014 RMK AO2 T00740039
KDZB 161415Z AUTO 00000KT 10SM OVC070 07/04 A3015 RMK AO2 T00680039
KDZB 161355Z AUTO 00000KT 10SM OVC080 07/04 A3014 RMK AO2 T00650040
KDZB 161335Z AUTO 00000KT 10SM OVC080 06/04 A3014 RMK AO2 T00600040
KDZB 161315Z AUTO 00000KT 10SM BKN080 05/04 A3015 RMK AO2 T00530036
KDZB 161255Z AUTO 00000KT 10SM SCT080 05/03 A3015 RMK AO2 T00480030
KDZB 161235Z AUTO 00000KT 10SM SCT090 05/03 A3015 RMK AO2 T00470029
KDZB 161215Z AUTO 00000KT 10SM SCT090 05/03 A3014 RMK AO2 T00450026
KDZB 161155Z AUTO 00000KT 10SM CLR 05/02 A3014 RMK AO2 T00450022 10068 20020
KDZB 161135Z AUTO 00000KT 10SM CLR 04/02 A3015 RMK AO2 T00410023
KDZB 161115Z AUTO 00000KT 10SM CLR 04/02 A3015 RMK AO2 T00390022
KDZB 161055Z AUTO 00000KT 10SM CLR 03/02 A3017 RMK AO2 T00320018
KDZB 161035Z AUTO 00000KT 10SM CLR 02/01 A3016 RMK AO2 T00200010
KDZB 161015Z AUTO 00000KT 10SM CLR 02/01 A3017 RMK AO2 T00220007
KDZB 160955Z AUTO 00000KT 10SM CLR 03/02 A3018 RMK AO2 T00310016
KDZB 160935Z AUTO 00000KT 10SM CLR 04/02 A3019 RMK AO2 T00430019
KDZB 160915Z AUTO 00000KT 10SM CLR 05/02 A3018 RMK AO2 T00530019
KDZB 160855Z AUTO 00000KT 10SM CLR 05/02 A3019 RMK AO2 T00540019
KDZB 160835Z AUTO 00000KT 10SM CLR 06/02 A3019 RMK AO2 T00630016
KDZB 160815Z AUTO 00000KT 10SM CLR 07/01 A3020 RMK AO2 T00650013
KDZB 160755Z AUTO 00000KT 10SM CLR 05/02 A3021 RMK AO2 T00500016
KDZB 160735Z AUTO 00000KT 10SM CLR 03/01 A3021 RMK AO2 T00310011
KDZB 160715Z AUTO 00000KT 10SM CLR 03/01 A3021 RMK AO2 T00340008
KDZB 160655Z AUTO 00000KT 10SM CLR 04/01 A3021 RMK AO2 T00360005
KDZB 160635Z AUTO 00000KT 10SM CLR 04/01 A3021 RMK AO2 T00440006
KDZB 160615Z AUTO 00000KT 10SM CLR 04/00 A3021 RMK AO2 T00350001
KDZB 160555Z AUTO 00000KT 10SM CLR 04/00 A3022 RMK AO2 T00430000 10074 20030 401510025
KDZB 160535Z AUTO 00000KT 10SM CLR 06/00 A3023 RMK AO2 T00601003
KDZB 160515Z AUTO 00000KT 10SM CLR 06/00 A3024 RMK AO2 T00581003
KDZB 160455Z AUTO 19003KT 10SM CLR 05/00 A3023 RMK AO2 T00531001
KDZB 160435Z AUTO 18003KT 10SM CLR 04/00 A3024 RMK AO2 T00441001
KDZB 160415Z AUTO 16003KT 10SM CLR 04/00 A3025 RMK AO2 T00361001
KDZB 160355Z AUTO 00000KT 10SM CLR 03/00 A3024 RMK AO2 T00310000
KDZB 160335Z AUTO 00000KT 10SM CLR 03/00 A3025 RMK AO2 T00340000
KDZB 160315Z AUTO 00000KT 10SM CLR 04/00 A3025 RMK AO2 T00401002
KDZB 160255Z AUTO 00000KT 10SM CLR 04/00 A3026 RMK AO2 T00351003
KDZB 160235Z AUTO 17003KT 10SM CLR 03/M01 A3026 RMK AO2 T00301009
KDZB 160215Z AUTO 19004KT 10SM CLR 03/M01 A3025 RMK AO2 T00301010
KDZB 160155Z AUTO 19003KT 10SM CLR 04/M01 A3026 RMK AO2 T00351012
KDZB 160135Z AUTO 18004KT 10SM CLR 04/M01 A3025 RMK AO2 T00401011
KDZB 160115Z AUTO 19003KT 10SM CLR 04/M01 A3025 RMK AO2 T00381010
KDZB 160055Z AUTO 00000KT 10SM CLR 04/M01 A3025 RMK AO2 T00421007
KDZB 160035Z AUTO 18003KT 10SM CLR 05/M01 A3025 RMK AO2 T00531007
KDZB 160015Z AUTO 00000KT 10SM CLR 07/00 A3024 RMK AO2 T00671005
KDZB 152355Z AUTO 00000KT 10SM CLR 08/M01 A3024 RMK AO2 T00761008 10151 20075
KDZB 152335Z AUTO 00000KT 10SM CLR 11/M03 A3023 RMK AO2 T01081026
KDZB 152315Z AUTO 32003KT 10SM CLR 13/M04 A3024 RMK AO2 T01321039
KDZB 152255Z AUTO 31004KT 10SM CLR 14/M04 A3024 RMK AO2 T01401039
KDZB 152235Z AUTO 33003KT 10SM CLR 14/M04 A3025 RMK AO2 T01431037
KDZB 152215Z AUTO 33004KT 10SM CLR 15/M04 A3023 RMK AO2 T01471037
KDZB 152155Z AUTO 27005KT 10SM CLR 15/M04 A3023 RMK AO2 T01481036
KDZB 152135Z AUTO 33005KT 10SM CLR 15/M03 A3023 RMK AO2 T01501029
KDZB 152115Z AUTO 00000KT 10SM CLR 15/M03 A3023 RMK AO2 T01451027
KDZB 152055Z AUTO 27003KT 10SM CLR 15/M02 A3024 RMK AO2 T01451021
KDZB 152035Z AUTO 00000KT 10SM CLR 14/M02 A3025 RMK AO2 T01391024
KDZB 152015Z AUTO 00000KT 10SM CLR 14/M02 A3026 RMK AO2 T01371021
KDZB 151955Z AUTO 33004KT 10SM CLR 14/M01 A3026 RMK AO2 T01431015
KDZB 151935Z AUTO 33004KT 10SM CLR 14/M01 A3028 RMK AO2 T01351012
KDZB 151915Z AUTO 32005KT 10SM CLR 14/00 A3028 RMK AO2 T01371004
KDZB 151855Z AUTO 31005KT 10SM CLR 13/00 A3030 RMK AO2 T01341001
KDZB 151835Z AUTO 32006KT 10SM CLR 13/00 A3031 RMK AO2 T01250000
KDZB 151815Z AUTO 31005KT 10SM CLR 11/00 A3032 RMK AO2 T01140000
KDZB 151755Z AUTO 00000KT 10SM CLR 11/00 A3033 RMK AO2 T01100001 10114 20025
KDZB 151735Z AUTO 33004KT 10SM CLR 11/00 A3034 RMK AO2 T01120000
KDZB 151715Z AUTO 33004KT 10SM CLR 11/00 A3036 RMK AO2 T01130000
KDZB 151655Z AUTO 34005KT 10SM CLR 11/00 A3035 RMK AO2 T01050003
KDZB 151635Z AUTO 33004KT 10SM CLR 10/00 A3035 RMK AO2 T00960001
KDZB 151615Z AUTO 32005KT 10SM CLR 09/00 A3035 RMK AO2 T00910000
KDZB 151555Z AUTO 32006KT 10SM CLR 09/00 A3034 RMK AO2 T00861002
KDZB 151535Z AUTO 31005KT 10SM CLR 07/00 A3033 RMK AO2 T00741001
KDZB 151515Z AUTO 30003KT 10SM CLR 07/00 A3033 RMK AO2 T00701002
KDZB 151455Z AUTO 30004KT 10SM CLR 06/00 A3033 RMK AO2 T00611002
KDZB 151435Z AUTO 00000KT 10SM CLR 05/00 A3033 RMK AO2 T00541003
KDZB 151415Z AUTO 00000KT 10SM CLR 05/00 A3031 RMK AO2 T00451005
KDZB 151355Z AUTO 00000KT 10SM CLR 04/00 A3031 RMK AO2 T00371004
KDZB 151335Z AUTO 00000KT 10SM CLR 03/M01 A3030 RMK AO2 T00251008
KDZB 151315Z AUTO 00000KT 10SM CLR 04/M01 A3030 RMK AO2 T00431007
KDZB 151255Z AUTO 00000KT 10SM CLR 06/M01 A3029 RMK AO2 T00551007
KDZB 151235Z AUTO 00000KT 10SM CLR 06/M01 A3029 RMK AO2 T00591007
KDZB 151215Z AUTO 00000KT 10SM CLR 06/M01 A3029 RMK AO2 T00611007
KDZB 151155Z AUTO 00000KT 10SM CLR 07/M01 A3028 RMK AO2 T00651006 10101 20065
KDZB 151135Z AUTO 31004KT 10SM CLR 07/M01 A3028 RMK AO2 T00671006
KDZB 151115Z AUTO 33003KT 10SM CLR 07/M01 A3027 RMK AO2 T00711009
KDZB 151055Z AUTO 34006KT 10SM CLR 08/M01 A3028 RMK AO2 T00771006
KDZB 151035Z AUTO 34005KT 10SM CLR 08/M01 A3027 RMK AO2 T00821006
KDZB 151015Z AUTO 35003KT 10SM CLR 09/M01 A3027 RMK AO2 T00851010
KDZB 150955Z AUTO 00000KT 10SM SCT110 09/M01 A3028 RMK AO2 T00851010
KDZB 150935Z AUTO 00000KT 10SM BKN110 09/M01 A3027 RMK AO2 T00871013
KDZB 150915Z AUTO 01003KT 10SM OVC110 09/M01 A3027 RMK AO2 T00881015
KDZB 150855Z AUTO 00000KT 10SM OVC110 09/M01 A3026 RMK AO2 T00891014